createdAt,value
2023-01-07T00:01:29.927Z,98073.49
2023-01-07T00:04:32.842Z,98070.98
2023-01-07T00:07:35.615Z,98077.45
2023-01-07T00:10:38.488Z,98077.33
2023-01-07T00:13:41.373Z,98075.85
2023-01-07T00:16:44.277Z,98077.52
2023-01-07T00:19:47.154Z,98077.84
2023-01-07T00:22:51.364Z,98079.05
2023-01-07T00:26:01.685Z,98084.30
2023-01-07T00:29:06.391Z,98086.87
2023-01-07T00:32:09.214Z,98088.38
2023-01-07T00:35:23.308Z,98089.22
2023-01-07T00:38:26.207Z,98084.18
2023-01-07T00:41:29.195Z,98084.13
2023-01-07T00:44:33.013Z,98087.52
2023-01-07T00:47:36.088Z,98088.20
2023-01-07T00:50:39.796Z,98089.99
2023-01-07T00:53:43.080Z,98089.86
2023-01-07T00:56:45.922Z,98094.30
2023-01-07T00:59:48.950Z,98102.59
2023-01-07T01:02:53.110Z,98105.76
2023-01-07T01:06:27.919Z,98108.73
2023-01-07T01:09:30.756Z,98111.76
2023-01-07T01:12:36.875Z,98115.20
2023-01-07T01:15:43.544Z,98111.06
2023-01-07T01:18:46.847Z,98113.17
2023-01-07T01:21:49.843Z,98111.80
2023-01-07T01:24:52.864Z,98113.09
2023-01-07T01:27:55.691Z,98109.41
2023-01-07T01:30:58.530Z,98103.79
2023-01-07T01:34:01.333Z,98106.63
2023-01-07T01:37:04.447Z,98114.00
2023-01-07T01:40:08.086Z,98110.98
2023-01-07T01:43:47.150Z,98108.34
2023-01-07T01:46:50.137Z,98099.58
2023-01-07T01:50:17.664Z,98101.92
2023-01-07T01:53:28.193Z,98103.05
2023-01-07T01:56:35.725Z,98108.34
2023-01-07T01:59:42.953Z,98110.88
2023-01-07T02:02:50.920Z,98107.98
2023-01-07T02:05:53.926Z,98104.97
2023-01-07T02:08:56.907Z,98104.59
2023-01-07T02:12:28.699Z,98098.36
2023-01-07T02:15:31.439Z,98096.64
2023-01-07T02:19:10.839Z,98086.95
2023-01-07T02:22:31.126Z,98086.60
2023-01-07T02:26:11.733Z,98085.30
2023-01-07T02:29:39.483Z,98084.83
2023-01-07T02:32:48.296Z,98083.59
2023-01-07T02:36:25.628Z,98082.97
2023-01-07T02:39:41.473Z,98084.58
2023-01-07T02:42:56.327Z,98089.11
2023-01-07T02:46:16.044Z,98089.20
2023-01-07T02:49:18.970Z,98093.58
2023-01-07T02:52:27.980Z,98095.50
2023-01-07T02:55:39.628Z,98093.54
2023-01-07T02:58:58.223Z,98095.70
2023-01-07T03:02:11.777Z,98092.91
2023-01-07T03:05:33.475Z,98094.48
2023-01-07T03:08:53.535Z,98091.67
2023-01-07T03:12:29.793Z,98088.73
2023-01-07T03:16:07.519Z,98091.15
2023-01-07T03:19:20.263Z,98090.41
2023-01-07T03:22:28.009Z,98087.44
2023-01-07T03:25:35.249Z,98090.80
2023-01-07T03:28:42.560Z,98091.94
2023-01-07T03:32:15.780Z,98089.00
2023-01-07T03:35:21.983Z,98086.20
2023-01-07T03:38:27.964Z,98091.38
2023-01-07T03:41:49.569Z,98087.52
2023-01-07T03:44:52.605Z,98084.42
2023-01-07T03:47:57.173Z,98082.91
2023-01-07T03:51:00.048Z,98080.93
2023-01-07T03:54:03.094Z,98078.80
2023-01-07T03:57:06.080Z,98078.70
2023-01-07T04:00:11.482Z,98073.98
2023-01-07T04:03:14.310Z,98075.12
2023-01-07T04:06:17.188Z,98076.43
2023-01-07T04:09:22.044Z,98077.67
2023-01-07T04:12:24.915Z,98076.89
2023-01-07T04:15:27.742Z,98073.34
2023-01-07T04:18:30.595Z,98073.00
2023-01-07T04:21:33.358Z,98074.75
2023-01-07T04:24:36.261Z,98077.72
2023-01-07T04:27:39.072Z,98081.43
2023-01-07T04:30:42.266Z,98082.36
2023-01-07T04:33:45.069Z,98082.69
2023-01-07T04:36:48.075Z,98085.20
2023-01-07T04:39:50.918Z,98078.76
2023-01-07T04:42:53.720Z,98082.16
2023-01-07T04:45:56.488Z,98079.69
2023-01-07T04:48:59.412Z,98081.73
2023-01-07T04:52:03.478Z,98083.48
2023-01-07T04:55:06.879Z,98075.41
2023-01-07T04:58:09.730Z,98074.77
2023-01-07T05:01:12.697Z,98077.11
2023-01-07T05:04:15.665Z,98086.39
2023-01-07T05:07:18.532Z,98087.66
2023-01-07T05:10:21.654Z,98087.56
2023-01-07T05:13:24.963Z,98085.68
2023-01-07T05:16:27.919Z,98087.48
2023-01-07T05:19:30.779Z,98089.95
2023-01-07T05:22:34.170Z,98090.81
2023-01-07T05:25:36.997Z,98093.19
2023-01-07T05:28:39.796Z,98094.56
2023-01-07T05:31:42.715Z,98090.25
2023-01-07T05:34:45.629Z,98090.94
2023-01-07T05:37:48.462Z,98092.92
2023-01-07T05:40:51.469Z,98090.73
2023-01-07T05:43:54.262Z,98095.60
2023-01-07T05:46:57.187Z,98095.15
2023-01-07T05:50:00.111Z,98094.13
2023-01-07T05:53:02.961Z,98101.32
2023-01-07T05:56:06.004Z,98102.77
2023-01-07T05:59:08.914Z,98101.17
2023-01-07T06:02:11.656Z,98100.90
2023-01-07T06:05:14.547Z,98102.39
2023-01-07T06:08:17.570Z,98100.77
2023-01-07T06:11:20.408Z,98106.52
2023-01-07T06:14:23.329Z,98103.48
2023-01-07T06:17:26.203Z,98098.48
2023-01-07T06:20:34.538Z,98094.13
2023-01-07T06:23:37.384Z,98100.46
2023-01-07T06:26:40.246Z,98094.35
2023-01-07T06:29:43.087Z,98095.04
2023-01-07T06:32:45.941Z,98097.73
2023-01-07T06:35:48.910Z,98097.36
2023-01-07T06:38:51.717Z,98094.77
2023-01-07T06:41:54.572Z,98097.33
2023-01-07T06:44:57.521Z,98092.56
2023-01-07T06:48:00.409Z,98094.41
2023-01-07T06:51:03.513Z,98096.36
2023-01-07T06:54:06.351Z,98097.80
2023-01-07T06:57:09.086Z,98105.76
2023-01-07T07:00:12.355Z,98100.52
2023-01-07T07:03:15.167Z,98099.57
2023-01-07T07:06:18.119Z,98103.29
2023-01-07T07:09:21.004Z,98106.25
2023-01-07T07:12:23.803Z,98107.93
2023-01-07T07:15:26.705Z,98108.19
2023-01-07T07:18:30.821Z,98113.63
2023-01-07T07:21:33.692Z,98113.81
2023-01-07T07:24:36.563Z,98112.56
2023-01-07T07:27:39.382Z,98113.80
2023-01-07T07:30:51.121Z,98116.48
2023-01-07T07:33:53.983Z,98117.19
2023-01-07T07:36:56.987Z,98116.92
2023-01-07T07:39:59.802Z,98115.80
2023-01-07T07:43:10.665Z,98119.02
2023-01-07T07:46:15.787Z,98117.62
2023-01-07T07:49:18.712Z,98120.61
2023-01-07T07:52:21.547Z,98125.02
2023-01-07T07:55:26.469Z,98124.02
2023-01-07T07:58:29.777Z,98123.31
2023-01-07T08:01:32.799Z,98122.68
2023-01-07T08:04:35.761Z,98123.74
2023-01-07T08:07:39.387Z,98123.81
2023-01-07T08:10:42.428Z,98120.92
2023-01-07T08:13:45.265Z,98112.02
2023-01-07T08:16:48.100Z,98122.38
2023-01-07T08:19:50.930Z,98119.77
2023-01-07T08:22:54.130Z,98119.25
2023-01-07T08:26:01.199Z,98112.40
2023-01-07T08:29:04.096Z,98109.48
2023-01-07T08:32:07.190Z,98108.73
2023-01-07T08:35:10.354Z,98105.38
2023-01-07T08:38:13.158Z,98109.17
2023-01-07T08:41:15.991Z,98102.85
2023-01-07T08:44:18.797Z,98102.58
2023-01-07T08:47:21.765Z,98104.98
2023-01-07T08:50:34.495Z,98114.09
2023-01-07T08:53:38.013Z,98118.02
2023-01-07T08:56:40.982Z,98115.09
2023-01-07T08:59:44.355Z,98115.58
2023-01-07T09:02:48.337Z,98115.10
2023-01-07T09:05:51.254Z,98114.18
2023-01-07T09:08:54.116Z,98115.66
2023-01-07T09:11:57.534Z,98117.54
2023-01-07T09:15:00.602Z,98115.98
2023-01-07T09:18:03.818Z,98122.17
2023-01-07T09:21:06.820Z,98120.99
2023-01-07T09:24:09.655Z,98119.23
2023-01-07T09:27:12.536Z,98113.83
2023-01-07T09:30:16.226Z,98115.15
2023-01-07T09:33:19.165Z,98113.61
2023-01-07T09:36:22.064Z,98108.23
2023-01-07T09:39:25.116Z,98106.13
2023-01-07T09:42:44.006Z,98105.75
2023-01-07T09:45:50.784Z,98105.54
2023-01-07T09:49:03.524Z,98098.99
2023-01-07T09:52:17.949Z,98099.42
2023-01-07T09:58:18.475Z,98095.35
2023-01-07T10:01:52.959Z,98094.94
2023-01-07T10:05:58.313Z,98088.79
2023-01-07T10:09:44.043Z,98090.27
2023-01-07T10:13:31.844Z,98088.20
2023-01-07T10:17:04.969Z,98075.38
2023-01-07T10:20:52.913Z,98071.71
2023-01-07T10:24:22.094Z,98070.92
2023-01-07T10:27:46.942Z,98066.88
2023-01-07T10:31:22.172Z,98063.01
2023-01-07T10:34:50.068Z,98064.73
2023-01-07T10:38:08.383Z,98058.64
2023-01-07T10:42:07.300Z,98059.11
2023-01-07T10:45:23.000Z,98055.91
2023-01-07T10:48:41.854Z,98053.09
2023-01-07T10:52:06.151Z,98055.49
2023-01-07T10:55:26.330Z,98050.66
2023-01-07T10:58:44.084Z,98042.49
2023-01-07T11:01:59.117Z,98041.51
2023-01-07T11:05:03.191Z,98036.80
2023-01-07T11:08:16.195Z,98033.00
2023-01-07T11:11:24.165Z,98029.19
2023-01-07T11:14:37.016Z,98030.23
2023-01-07T11:19:46.533Z,98018.15
2023-01-07T11:22:58.181Z,98017.85
2023-01-07T11:26:18.675Z,98020.19
2023-01-07T11:29:40.124Z,98013.52
2023-01-07T11:32:54.526Z,98007.66
2023-01-07T11:35:57.837Z,98003.53
2023-01-07T11:39:11.323Z,98002.27
2023-01-07T11:42:38.512Z,98002.58
2023-01-07T11:46:21.178Z,97995.92
2023-01-07T11:50:02.510Z,97994.08
2023-01-07T11:53:14.640Z,97991.15
2023-01-07T11:56:21.096Z,97991.34
2023-01-07T11:59:31.105Z,97989.05
2023-01-07T12:02:37.701Z,97985.34
2023-01-07T12:05:45.292Z,97978.60
2023-01-07T12:08:59.316Z,97971.43
2023-01-07T12:12:31.991Z,97967.23
2023-01-07T12:15:52.056Z,97964.56
2023-01-07T12:19:04.817Z,97963.86
2023-01-07T12:23:08.619Z,97956.67
2023-01-07T12:26:38.477Z,97951.61
2023-01-07T12:30:30.995Z,97948.84
2023-01-07T12:34:08.022Z,97945.55
2023-01-07T12:37:44.107Z,97936.52
2023-01-07T12:41:10.915Z,97937.10
2023-01-07T12:44:46.733Z,97930.60
2023-01-07T12:48:22.748Z,97927.77
2023-01-07T12:51:34.095Z,97927.63
2023-01-07T12:54:43.096Z,97923.91
2023-01-07T12:58:00.968Z,97922.04
2023-01-07T13:01:33.931Z,97915.91
2023-01-07T13:04:40.755Z,97910.45
2023-01-07T13:13:59.522Z,97919.66
2023-01-07T13:17:37.348Z,97910.00
2023-01-07T13:21:17.133Z,97907.91
2023-01-07T13:24:55.983Z,97906.45
2023-01-07T13:28:23.361Z,97903.65
2023-01-07T13:31:45.507Z,97905.73
2023-01-07T13:35:30.161Z,97901.23
2023-01-07T13:39:03.417Z,97904.96
2023-01-07T13:42:52.649Z,97908.81
2023-01-07T13:46:03.897Z,97907.97
2023-01-07T13:49:06.198Z,97911.64
2023-01-07T13:52:23.830Z,97912.71
2023-01-07T13:55:35.994Z,97914.42
2023-01-07T13:58:49.690Z,97915.60
2023-01-07T14:02:18.232Z,97916.29
2023-01-07T14:08:00.039Z,97912.65
2023-01-07T14:11:35.387Z,97916.33
2023-01-07T14:15:11.948Z,97910.13
2023-01-07T14:18:36.174Z,97907.58
2023-01-07T14:22:11.722Z,97903.07
2023-01-07T14:25:45.611Z,97905.59
2023-01-07T14:29:41.788Z,97900.84
2023-01-07T14:33:02.955Z,97904.94
2023-01-07T14:37:00.979Z,97903.49
2023-01-07T14:40:33.749Z,97903.33
2023-01-07T14:43:46.734Z,97897.57
2023-01-07T14:46:52.665Z,97893.33
2023-01-07T14:50:35.405Z,97892.96
2023-01-07T14:54:00.813Z,97894.38
2023-01-07T14:57:40.330Z,97886.86
2023-01-07T15:00:59.111Z,97880.28
2023-01-07T15:06:46.161Z,97874.54
2023-01-07T15:10:16.717Z,97873.32
2023-01-07T15:14:00.242Z,97871.36
2023-01-07T15:17:06.762Z,97871.01
2023-01-07T15:20:13.718Z,97871.23
2023-01-07T15:23:45.590Z,97868.03
2023-01-07T15:27:29.625Z,97866.02
2023-01-07T15:30:50.697Z,97863.63
2023-01-07T15:34:13.660Z,97868.95
2023-01-07T15:37:19.088Z,97871.23
2023-01-07T15:40:26.585Z,97866.63
2023-01-07T15:43:32.139Z,97861.11
2023-01-07T15:46:41.289Z,97854.80
2023-01-07T15:49:44.421Z,97854.09
2023-01-07T15:52:57.098Z,97853.82
2023-01-07T15:56:10.363Z,97854.65
2023-01-07T15:59:27.908Z,97858.08
2023-01-07T16:02:44.221Z,97855.47
2023-01-07T16:05:48.179Z,97856.71
2023-01-07T16:08:51.875Z,97857.70
2023-01-07T16:11:55.375Z,97858.77
2023-01-07T16:14:58.794Z,97857.88
2023-01-07T16:18:19.327Z,97855.00
2023-01-07T16:21:35.925Z,97853.02
2023-01-07T16:24:50.818Z,97856.03
2023-01-07T16:27:55.720Z,97857.34
2023-01-07T16:31:00.242Z,97855.48
2023-01-07T16:34:25.639Z,97854.97
2023-01-07T16:37:30.176Z,97848.98
2023-01-07T16:40:38.847Z,97844.52
2023-01-07T16:43:45.351Z,97842.69
2023-01-07T16:47:15.659Z,97839.09
2023-01-07T16:50:19.559Z,97844.61
2023-01-07T16:53:28.274Z,97839.69
2023-01-07T16:56:31.612Z,97835.21
2023-01-07T16:59:38.843Z,97831.25
2023-01-07T17:02:54.323Z,97834.38
2023-01-07T17:06:09.136Z,97829.64
2023-01-07T17:09:29.156Z,97829.65
2023-01-07T17:12:37.651Z,97825.52
2023-01-07T17:15:43.263Z,97826.24
2023-01-07T17:18:46.817Z,97822.31
2023-01-07T17:21:50.019Z,97821.33
2023-01-07T17:24:53.722Z,97813.68
2023-01-07T17:28:01.136Z,97818.81
2023-01-07T17:31:06.122Z,97813.19
2023-01-07T17:34:16.123Z,97808.33
2023-01-07T17:37:19.557Z,97811.32
2023-01-07T17:40:23.173Z,97810.57
2023-01-07T17:43:38.654Z,97807.30
2023-01-07T17:46:42.588Z,97808.06
2023-01-07T17:49:47.854Z,97813.09
2023-01-07T17:52:54.459Z,97809.52
2023-01-07T17:55:57.836Z,97808.17
2023-01-07T17:59:04.725Z,97807.61
2023-01-07T18:02:16.640Z,97814.61
2023-01-07T18:05:24.521Z,97815.77
2023-01-07T18:08:27.617Z,97820.38
2023-01-07T18:11:53.975Z,97822.54
2023-01-07T18:15:02.840Z,97824.80
2023-01-07T18:18:05.967Z,97820.40
2023-01-07T18:21:12.235Z,97814.67
2023-01-07T18:24:21.120Z,97815.40
2023-01-07T18:27:24.106Z,97819.39
2023-01-07T18:30:27.912Z,97820.40
2023-01-07T18:33:30.920Z,97820.19
2023-01-07T18:36:34.481Z,97824.06
2023-01-07T18:39:37.683Z,97825.31
2023-01-07T18:42:40.624Z,97826.52
2023-01-07T18:45:45.250Z,97821.98
2023-01-07T18:48:48.408Z,97816.61
2023-01-07T18:53:18.946Z,97815.55
2023-01-07T18:56:21.797Z,97814.27
2023-01-07T18:59:25.141Z,97814.36
2023-01-07T19:02:28.266Z,97812.88
2023-01-07T19:05:32.636Z,97811.47
2023-01-07T19:08:36.018Z,97807.88
2023-01-07T19:11:39.558Z,97805.70
2023-01-07T19:22:32.025Z,97794.37
2023-01-07T19:25:36.240Z,97791.26
2023-01-07T19:28:39.879Z,97789.23
2023-01-07T19:31:45.650Z,97784.92
2023-01-07T19:34:53.211Z,97782.58
2023-01-07T19:37:56.440Z,97785.06
2023-01-07T19:40:59.436Z,97784.65
2023-01-07T19:44:02.537Z,97783.67
2023-01-07T19:47:47.702Z,97782.11
2023-01-07T19:51:02.690Z,97779.16
2023-01-07T19:54:07.332Z,97774.94
2023-01-07T19:57:11.903Z,97770.11
2023-01-07T20:00:15.225Z,97770.10
2023-01-07T20:03:18.251Z,97769.58
2023-01-07T20:06:25.288Z,97770.33
2023-01-07T20:09:28.301Z,97767.95
2023-01-07T20:12:32.029Z,97769.31
2023-01-07T20:15:35.283Z,97763.14
2023-01-07T20:18:44.231Z,97757.82
2023-01-07T20:21:48.401Z,97755.43
2023-01-07T20:25:35.963Z,97749.21
2023-01-07T20:28:40.135Z,97748.77
2023-01-07T20:31:44.644Z,97741.52
2023-01-07T20:34:47.881Z,97739.20
2023-01-07T20:37:51.263Z,97734.58
2023-01-07T20:40:55.162Z,97733.02
2023-01-07T20:44:01.568Z,97734.27
2023-01-07T20:47:05.440Z,97733.27
2023-01-07T20:50:10.661Z,97728.21
2023-01-07T20:53:13.654Z,97722.80
2023-01-07T20:56:19.675Z,97718.35
2023-01-07T20:59:22.556Z,97720.55
2023-01-07T21:02:28.078Z,97717.36
2023-01-07T21:05:31.687Z,97716.20
2023-01-07T21:08:35.126Z,97714.80
2023-01-07T21:11:38.200Z,97714.20
2023-01-07T21:14:40.981Z,97710.73
2023-01-07T21:17:44.588Z,97708.78
2023-01-07T21:20:48.685Z,97702.70
2023-01-07T21:23:54.509Z,97703.65
2023-01-07T21:26:58.634Z,97703.21
2023-01-07T21:30:03.768Z,97700.95
2023-01-07T21:33:08.860Z,97700.19
2023-01-07T21:36:15.501Z,97700.64
2023-01-07T21:39:20.035Z,97705.34
2023-01-07T21:42:23.353Z,97704.49
2023-01-07T21:45:26.517Z,97699.61
2023-01-07T21:48:33.562Z,97698.09
2023-01-07T21:53:58.624Z,97690.98
2023-01-07T21:57:17.022Z,97690.41
2023-01-07T22:00:35.319Z,97689.76
2023-01-07T22:03:38.631Z,97687.39
2023-01-07T22:06:44.511Z,97686.59
2023-01-07T22:10:05.642Z,97682.13
2023-01-07T22:13:34.123Z,97686.51
2023-01-07T22:17:58.257Z,97682.42
2023-01-07T22:21:21.447Z,97680.05
2023-01-07T22:24:25.603Z,97676.45
2023-01-07T22:27:38.550Z,97678.02
2023-01-07T22:31:15.370Z,97669.83
2023-01-07T22:34:19.476Z,97672.92
2023-01-07T22:37:27.365Z,97668.41
2023-01-07T22:41:13.378Z,97666.58
2023-01-07T22:44:32.379Z,97662.67
2023-01-07T22:47:42.254Z,97659.71
2023-01-07T22:50:45.595Z,97653.77
2023-01-07T22:56:19.269Z,97648.78
2023-01-07T22:59:47.043Z,97642.36
2023-01-07T23:03:09.068Z,97639.40
2023-01-07T23:06:30.068Z,97635.63
2023-01-07T23:09:35.480Z,97630.19
2023-01-07T23:12:46.325Z,97629.84
2023-01-07T23:15:49.588Z,97627.73
2023-01-07T23:19:15.226Z,97621.34
2023-01-07T23:22:33.221Z,97611.63
2023-01-07T23:25:38.562Z,97606.66
2023-01-07T23:28:50.802Z,97601.35
2023-01-07T23:31:59.790Z,97599.63
2023-01-07T23:35:15.392Z,97591.58
2023-01-07T23:38:30.178Z,97591.02
2023-01-07T23:41:41.753Z,97590.13
2023-01-07T23:46:41.225Z,97589.45
2023-01-07T23:49:52.332Z,97589.09
2023-01-07T23:53:02.750Z,97588.20
2023-01-07T23:56:24.694Z,97581.98
2023-01-07T23:59:49.578Z,97574.94
